Flight Track Log - Related Links

Times and Time Zones

All times are in EDT time to prevent confusion due to time zone crossing. See the SWA2182 flight status page for this flight to view local times or setup timezone preferences in your user account.

Time Position Orientation Groundspeed Altitude Reporting Facility
EDT Latitude Longitude Course Direction KTS MPH feet Rate Location/Type
Thu 09:10:15 AM 38.6667 -121.6000 130° Southeast 152 175 1,500  Level Northern Cal TRACON
Thu 09:11:15 AM 38.6333 -121.5500 130° Southeast 215 247 3,900 2,896 Climbing Northern Cal TRACON
Thu 09:13:36 AM 38.5400 -121.3550 121° Southeast 285 328 11,200 3,178 Climbing Oakland Center
Thu 09:14:37 AM 38.4914 -121.2503 121° Southeast 341 392 14,600 3,273 Climbing Oakland Center
Thu 09:15:37 AM 38.4467 -121.1494 119° Southeast 358 412 17,800 3,421 Climbing Oakland Center
Thu 09:16:38 AM 38.3839 -121.0117 120° Southeast 375 432 21,500 3,174 Climbing Oakland Center
Thu 09:17:38 AM 38.2883 -120.9344 148° Southeast 408 470 24,200 2,479 Climbing Oakland Center
Thu 09:18:39 AM 38.1811 -120.8678 154° Southeast 425 489 26,500 2,182 Climbing Oakland Center
Thu 09:19:39 AM 38.0694 -120.7972 154° Southeast 442 509 28,600 1,983 Climbing Oakland Center
Thu 09:20:40 AM 37.9550 -120.7278 154° Southeast 453 521 30,500 1,835 Climbing Oakland Center
Thu 09:21:40 AM 37.8364 -120.6578 155° Southeast 465 535 32,300 1,884 Climbing Oakland Center
Thu 09:22:41 AM 37.7192 -120.5867 154° Southeast 466 536 34,300 1,785 Climbing Oakland Center
Thu 09:23:41 AM 37.6011 -120.5161 155° Southeast 466 536 35,900 1,686 Climbing Oakland Center
Thu 09:24:42 AM 37.4831 -120.4464 155° Southeast 467 537 37,700 1,537 Climbing Oakland Center
Thu 09:25:42 AM 37.3678 -120.3769 154° Southeast 461 531 39,000 645 Climbing Oakland Center
Thu 09:26:43 AM 37.2472 -120.3108 156° South 467 537 39,000  Level Oakland Center
Thu 09:27:44 AM 37.1314 -120.2417 155° Southeast 457 526 39,000  Level Oakland Center
Thu 09:28:44 AM 37.0150 -120.1731 155° Southeast 459 528 39,000  Level Oakland Center
Thu 09:29:45 AM 36.8994 -120.1031 154° Southeast 458 527 39,000  Level Oakland Center
Thu 09:30:46 AM 36.7839 -120.0350 155° Southeast 457 526 39,000  Level Oakland Center
Thu 09:31:47 AM 36.6681 -119.9664 155° Southeast 458 527 39,000  Level Oakland Center
Thu 09:32:47 AM 36.5533 -119.8986 155° Southeast 456 525 39,000  Level Oakland Center
Thu 09:33:48 AM 36.4383 -119.8311 155° Southeast 456 525 39,000  Level Oakland Center
Thu 09:34:49 AM 36.3233 -119.7650 155° Southeast 455 524 39,000  Level Oakland Center
Thu 09:35:50 AM 36.2094 -119.6986 155° Southeast 452 520 39,000  Level Oakland Center
Thu 09:36:51 AM 36.0953 -119.6333 155° Southeast 450 518 39,000  Level Oakland Center
Thu 09:37:51 AM 35.9814 -119.5706 156° South 448 516 39,000  Level Oakland Center
Thu 09:38:52 AM 35.8686 -119.5081 156° South 443 510 39,000  Level Oakland Center
Thu 09:39:53 AM 35.7553 -119.4428 155° Southeast 446 513 39,000  Level Oakland Center
Thu 09:40:54 AM 35.6364 -119.3753 155° Southeast 460 529 39,000  Level Oakland Center
Thu 09:41:16 AM 35.5914 -119.3492 155° Southeast 457 526 39,000  Level Los Angeles Center
Thu 09:42:17 AM 35.4742 -119.2831 155° Southeast 459 528 39,000  Level Los Angeles Center
Thu 09:43:56 AM 35.2622 -119.1650 156° South 463 533 39,000  Level Oakland Center
Thu 09:44:20 AM 35.2161 -119.1381 154° Southeast 464 534 39,000  Level Los Angeles Center
Thu 09:45:21 AM 35.0972 -119.0725 156° South 467 537 39,000  Level Los Angeles Center
Thu 09:46:23 AM 34.9789 -119.0061 155° Southeast 468 539 39,000  Level Los Angeles Center
Thu 09:47:24 AM 34.8708 -118.9458 155° Southeast 467 537 39,000  Level Los Angeles Center
Thu 09:48:26 AM 34.7522 -118.8811 156° South 467 537 39,000  Level Los Angeles Center
Thu 09:49:27 AM 34.6136 -118.8042 155° Southeast 458 527 39,000  Level Los Angeles Center
Thu 09:50:29 AM 34.4972 -118.7411 156° South 458 527 39,000  Level Los Angeles Center
Thu 09:51:30 AM 34.3903 -118.6542 146° Southeast 463 533 39,000  Level Los Angeles Center
Thu 09:52:32 AM 34.2875 -118.5603 143° Southeast 462 532 39,000  Level Los Angeles Center
Thu 09:53:33 AM 34.1833 -118.4669 143° Southeast 465 535 39,000  Level Los Angeles Center
Thu 09:54:35 AM 34.0800 -118.3739 143° Southeast 464 534 39,000 -968 Level Los Angeles Center
Thu 09:55:37 AM 33.9750 -118.2794 143° Southeast 467 537 37,000 -2,293 Descending Los Angeles Center
Thu 09:56:38 AM 33.8889 -118.2028 144° Southeast 470 541 34,300 -3,366 Descending Los Angeles Center
Thu 09:57:40 AM 33.7553 -118.0844 144° Southeast 487 560 30,100 -3,805 Descending Los Angeles Center
Thu 09:58:41 AM 33.6472 -117.9886 144° Southeast 480 552 26,500 -2,878 Descending Los Angeles Center
Thu 09:59:43 AM 33.5436 -117.8972 144° Southeast 462 532 24,200 -1,210 Descending Los Angeles Center
Thu 10:00:45 AM 33.4283 -117.7903 142° Southeast 433 498 24,000 -1,415 Descending Los Angeles Center
Thu 10:01:46 AM 33.3442 -117.6853 134° Southeast 436 502 21,300 -2,948 Descending Los Angeles Center
Thu 10:02:41 AM 33.2667 -117.5833 132° Southeast 427 491 18,300 -3,028 Descending Southern California TRACON
Thu 10:03:35 AM 33.1833 -117.5167 146° Southeast 406 467 15,800 -2,263 Descending Southern California TRACON
Thu 10:04:35 AM 33.1000 -117.4333 140° Southeast 368 423 14,000 -2,250 Descending Southern California TRACON
Thu 10:05:35 AM 33.0167 -117.3833 153° Southeast 355 409 11,300 -2,105 Descending Southern California TRACON
Thu 10:06:29 AM 32.9500 -117.3167 140° Southeast 329 379 10,000 -1,289 Descending Southern California TRACON
Thu 10:07:36 AM 32.8833 -117.2667 148° Southeast 290 334 8,700 -1,310 Descending Southern California TRACON
Thu 10:07:56 AM 32.8533 -117.2414 145° Southeast 291 335 8,100 -1,463 Descending Los Angeles Center
Thu 10:08:58 AM 32.8025 -117.1725 131° Southeast 291 335 6,700 -1,016 Descending Los Angeles Center
Thu 10:10:00 AM 32.7861 -117.0953 104° East 273 314 6,000 -628 Descending Los Angeles Center
Thu 10:10:24 AM 32.7833 -117.0500 94° East 245 282 5,800 -706 Descending Southern California TRACON
Thu 10:11:25 AM 32.7667 -116.9833 107° East 236 272 5,000 -417 Descending Southern California TRACON
Thu 10:12:19 AM 32.7167 -116.9667 164° South 199 229 5,000 -526 Level Southern California TRACON
Thu 10:13:19 AM 32.7000 -117.0167 248° West 180 207 4,000 -1,316 Descending Southern California TRACON
Thu 10:14:13 AM 32.7000 -117.0667 270° West 171 197 2,500 -1,444 Descending Southern California TRACON
Thu 10:15:07 AM 32.7167 -117.1167 292° West 161 185 1,400 -1,077 Descending Southern California TRACON
Thu 10:16:10 AM 32.7272 -117.1603 286° West 156 180 400 -952 Descending Los Angeles Center
Thu 10:19:00 AM 32.7333 -117.1833 275° West  Level FlightAware Approximate

Login

Don't have an account? Register now (free) for customized features, flight alerts, and more!